createdAt,value
2018-07-10T00:03:14.772Z,17.88
2018-07-10T00:06:17.353Z,17.92
2018-07-10T00:09:14.728Z,17.89
2018-07-10T00:11:44.085Z,17.65
2018-07-10T00:14:13.431Z,17.73
2018-07-10T00:16:42.795Z,17.74
2018-07-10T00:19:12.260Z,17.81
2018-07-10T00:21:41.603Z,17.78
2018-07-10T00:24:10.971Z,17.31
2018-07-10T00:26:40.388Z,17.28
2018-07-10T00:29:09.735Z,17.28
2018-07-10T00:31:39.098Z,17.19
2018-07-10T00:34:08.440Z,17.02
2018-07-10T00:36:37.819Z,17.20
2018-07-10T00:39:09.493Z,17.23
2018-07-10T00:41:40.139Z,17.11
2018-07-10T00:44:09.848Z,17.11
2018-07-10T00:46:40.480Z,17.10
2018-07-10T00:49:09.875Z,17.30
2018-07-10T00:51:41.292Z,17.27
2018-07-10T00:54:10.920Z,17.33
2018-07-10T00:56:40.290Z,17.37
2018-07-10T00:59:09.708Z,17.32
2018-07-10T01:01:39.104Z,17.31
2018-07-10T01:04:16.016Z,17.18
2018-07-10T01:06:45.373Z,16.96
2018-07-10T01:09:16.270Z,16.72
2018-07-10T01:11:45.641Z,16.38
2018-07-10T01:14:15.013Z,16.29
2018-07-10T01:16:44.376Z,15.92
2018-07-10T01:19:16.207Z,15.91
2018-07-10T01:22:02.594Z,15.68
2018-07-10T01:24:38.666Z,15.46
2018-07-10T01:27:11.718Z,15.40
2018-07-10T01:29:50.863Z,15.17
2018-07-10T01:32:26.654Z,15.21
2018-07-10T01:35:06.719Z,15.26
2018-07-10T01:37:42.335Z,14.68
2018-07-10T01:40:16.373Z,15.17
2018-07-10T01:42:55.133Z,15.05
2018-07-10T01:45:36.128Z,15.05
2018-07-10T01:48:13.241Z,15.26
2018-07-10T01:50:47.167Z,15.12
2018-07-10T01:53:22.257Z,15.20
2018-07-10T01:56:00.557Z,15.24
2018-07-10T01:58:37.261Z,15.37
2018-07-10T02:01:15.617Z,15.49
2018-07-10T02:03:51.705Z,15.53
2018-07-10T02:06:26.665Z,15.59
2018-07-10T02:09:06.083Z,15.51
2018-07-10T02:11:43.211Z,15.55
2018-07-10T02:14:16.923Z,15.22
2018-07-10T02:17:00.604Z,15.16
2018-07-10T02:19:34.068Z,15.28
2018-07-10T02:22:09.706Z,15.39
2018-07-10T02:24:44.582Z,15.45
2018-07-10T02:27:23.966Z,15.46
2018-07-10T02:30:01.440Z,15.24
2018-07-10T02:32:38.483Z,15.38
2018-07-10T02:35:15.541Z,14.94
2018-07-10T02:37:54.487Z,15.17
2018-07-10T02:40:29.997Z,15.25
2018-07-10T02:43:07.385Z,15.25
2018-07-10T02:45:42.782Z,15.25
2018-07-10T02:48:21.816Z,15.31
2018-07-10T02:50:58.894Z,15.30
2018-07-10T02:53:36.685Z,15.20
2018-07-10T02:56:11.564Z,15.33
2018-07-10T02:58:51.429Z,15.27
2018-07-10T03:01:32.477Z,15.42
2018-07-10T03:04:05.045Z,15.45
2018-07-10T03:09:22.283Z,15.29
2018-07-10T03:12:01.338Z,15.35
2018-07-10T03:14:39.009Z,15.40
2018-07-10T03:17:19.498Z,15.39
2018-07-10T03:19:55.938Z,15.38
2018-07-10T03:22:32.471Z,15.45
2018-07-10T03:25:09.800Z,15.48
2018-07-10T03:27:48.663Z,15.40
2018-07-10T03:30:23.453Z,15.44
2018-07-10T03:32:58.305Z,15.47
2018-07-10T03:35:33.318Z,15.41
2018-07-10T03:38:13.078Z,15.32
2018-07-10T03:40:49.261Z,15.16
2018-07-10T03:43:27.094Z,15.12
2018-07-10T03:46:02.590Z,15.15
2018-07-10T03:48:38.234Z,15.12
2018-07-10T03:51:15.476Z,15.14
2018-07-10T03:53:50.415Z,15.03
2018-07-10T03:56:25.965Z,14.88
2018-07-10T03:59:02.565Z,14.98
2018-07-10T04:01:38.713Z,14.68
2018-07-10T04:04:15.982Z,14.73
2018-07-10T04:06:51.143Z,14.72
2018-07-10T04:09:24.921Z,14.67
2018-07-10T04:11:58.604Z,14.72
2018-07-10T04:14:33.174Z,14.61
2018-07-10T04:17:06.278Z,14.54
2018-07-10T04:19:40.038Z,14.69
2018-07-10T04:22:15.125Z,14.77
2018-07-10T04:24:55.992Z,14.61
2018-07-10T04:27:38.547Z,14.61
2018-07-10T04:30:25.075Z,14.58
2018-07-10T04:32:59.617Z,14.55
2018-07-10T04:35:33.894Z,14.36
2018-07-10T04:38:09.814Z,14.48
2018-07-10T04:40:44.637Z,14.29
2018-07-10T04:43:23.596Z,14.56
2018-07-10T04:46:01.068Z,14.26
2018-07-10T04:48:36.988Z,14.34
2018-07-10T04:51:21.536Z,14.16
2018-07-10T04:54:06.299Z,14.36
2018-07-10T04:56:49.779Z,14.23
2018-07-10T04:59:23.159Z,14.39
2018-07-10T05:01:55.868Z,14.35
2018-07-10T05:04:29.923Z,14.39
2018-07-10T05:07:08.306Z,14.37
2018-07-10T05:09:48.220Z,14.35
2018-07-10T05:12:21.152Z,14.31
2018-07-10T05:14:53.073Z,14.41
2018-07-10T05:17:27.563Z,14.62
2018-07-10T05:20:00.256Z,14.63
2018-07-10T05:22:42.609Z,14.72
2018-07-10T05:25:15.189Z,14.68
2018-07-10T05:27:48.273Z,14.44
2018-07-10T05:30:21.595Z,14.86
2018-07-10T05:32:53.544Z,14.90
2018-07-10T05:35:25.578Z,15.02
2018-07-10T05:37:57.143Z,15.10
2018-07-10T05:43:04.317Z,14.96
2018-07-10T05:45:35.372Z,15.00
2018-07-10T05:48:05.861Z,15.03
2018-07-10T05:50:37.312Z,14.84
2018-07-10T05:53:11.947Z,14.91
2018-07-10T05:55:46.812Z,15.01
2018-07-10T05:58:17.200Z,15.01
2018-07-10T06:00:46.538Z,15.00
2018-07-10T06:03:15.964Z,14.88
2018-07-10T06:05:45.344Z,14.98
2018-07-10T06:08:14.922Z,14.96
2018-07-10T06:10:44.303Z,14.88
2018-07-10T06:13:13.684Z,14.91
2018-07-10T06:15:43.068Z,14.91
2018-07-10T06:18:12.424Z,15.22
2018-07-10T06:20:42.348Z,15.38
2018-07-10T06:23:12.024Z,15.29
2018-07-10T06:25:41.392Z,15.18
2018-07-10T06:28:16.707Z,15.30
2018-07-10T06:30:46.047Z,15.48
2018-07-10T06:33:26.059Z,15.33
2018-07-10T06:36:38.856Z,15.45
2018-07-10T06:39:15.137Z,15.39
2018-07-10T06:41:49.680Z,15.35
2018-07-10T06:44:20.291Z,15.48
2018-07-10T06:46:58.660Z,15.89
2018-07-10T06:49:35.496Z,16.03
2018-07-10T06:52:09.912Z,16.29
2018-07-10T06:55:03.900Z,16.61
2018-07-10T06:57:36.575Z,16.42
2018-07-10T07:09:13.081Z,16.09
2018-07-10T07:11:42.401Z,15.16
2018-07-10T07:14:11.712Z,15.44
2018-07-10T07:16:41.072Z,15.58
2018-07-10T07:19:10.568Z,15.66
2018-07-10T07:21:39.932Z,15.79
2018-07-10T07:24:09.276Z,16.22
2018-07-10T07:26:38.624Z,16.56
2018-07-10T07:29:08.109Z,16.34
2018-07-10T07:31:37.454Z,16.86
2018-07-10T07:34:06.785Z,17.14
2018-07-10T07:36:36.164Z,17.47
2018-07-10T07:39:06.179Z,17.60
2018-07-10T07:41:35.514Z,17.07
2018-07-10T07:44:05.072Z,17.17
2018-07-10T07:46:34.221Z,16.50
2018-07-10T07:49:05.132Z,16.69
2018-07-10T07:51:34.769Z,16.80
2018-07-10T07:54:04.350Z,16.86
2018-07-10T07:56:34.128Z,16.87
2018-07-10T07:59:03.901Z,16.56
2018-07-10T08:01:33.479Z,16.53
2018-07-10T08:04:03.129Z,16.77
2018-07-10T08:06:32.960Z,17.12
2018-07-10T08:09:05.073Z,17.15
2018-07-10T08:11:34.927Z,17.20
2018-07-10T08:14:05.356Z,17.29
2018-07-10T08:16:35.022Z,17.60
2018-07-10T08:19:05.641Z,17.62
2018-07-10T08:21:35.004Z,17.88
2018-07-10T08:24:04.509Z,18.30
2018-07-10T08:26:33.847Z,18.19
2018-07-10T08:29:03.600Z,17.73
2018-07-10T08:31:33.286Z,18.10
2018-07-10T08:34:02.662Z,17.92
2018-07-10T08:36:32.034Z,17.69
2018-07-10T08:39:01.440Z,17.88
2018-07-10T08:41:50.013Z,18.16
2018-07-10T08:44:20.694Z,18.12
2018-07-10T08:46:55.707Z,18.25
2018-07-10T08:49:29.424Z,18.53
2018-07-10T08:51:58.774Z,18.68
2018-07-10T08:54:28.168Z,18.66
2018-07-10T08:56:57.578Z,19.07
2018-07-10T08:59:26.911Z,19.28
2018-07-10T09:01:56.243Z,19.27
2018-07-10T09:04:25.591Z,19.13
2018-07-10T09:06:54.945Z,19.09
2018-07-10T09:09:24.312Z,19.14
2018-07-10T09:11:53.692Z,19.20
2018-07-10T09:14:23.136Z,18.94
2018-07-10T09:16:52.452Z,18.49
2018-07-10T09:19:26.536Z,18.52
2018-07-10T09:22:02.764Z,18.50
2018-07-10T09:24:33.339Z,18.83
2018-07-10T09:27:04.669Z,19.20
2018-07-10T09:29:34.029Z,19.43
2018-07-10T09:32:03.396Z,19.13
2018-07-10T09:34:32.724Z,19.02
2018-07-10T09:37:02.465Z,19.03
2018-07-10T09:39:31.789Z,19.50
2018-07-10T09:42:01.111Z,19.36
2018-07-10T09:44:30.183Z,19.79
2018-07-10T09:46:59.550Z,20.05
2018-07-10T09:49:28.835Z,19.94
2018-07-10T09:51:58.177Z,19.69
2018-07-10T09:54:27.517Z,20.05
2018-07-10T09:56:57.128Z,20.37
2018-07-10T09:59:26.555Z,20.24
2018-07-10T10:02:01.545Z,19.69
2018-07-10T10:04:31.741Z,19.91
2018-07-10T10:07:01.061Z,19.93
2018-07-10T10:09:30.400Z,19.47
2018-07-10T10:11:59.756Z,19.66
2018-07-10T10:14:29.084Z,19.01
2018-07-10T10:16:58.427Z,18.84
2018-07-10T10:19:28.650Z,18.79
2018-07-10T10:21:58.035Z,18.91
2018-07-10T10:24:27.352Z,18.31
2018-07-10T10:26:58.017Z,18.44
2018-07-10T10:29:27.424Z,18.55
2018-07-10T10:31:56.980Z,18.20
2018-07-10T10:34:26.347Z,18.42
2018-07-10T10:36:55.680Z,18.35
2018-07-10T10:39:25.032Z,17.85
2018-07-10T10:41:54.505Z,17.94
2018-07-10T10:44:25.311Z,18.32
2018-07-10T10:46:54.660Z,17.94
2018-07-10T10:49:26.039Z,17.96
2018-07-10T10:51:55.346Z,17.56
2018-07-10T10:54:24.666Z,17.00
2018-07-10T10:56:54.065Z,17.01
2018-07-10T10:59:24.980Z,16.97
2018-07-10T11:01:55.327Z,17.32
2018-07-10T11:04:24.407Z,17.10
2018-07-10T11:06:54.641Z,17.45
2018-07-10T11:09:23.984Z,17.37
2018-07-10T11:11:53.351Z,17.50
2018-07-10T11:14:22.784Z,17.67
2018-07-10T11:16:52.146Z,17.72
2018-07-10T11:19:31.704Z,17.30
2018-07-10T11:22:09.194Z,17.39
2018-07-10T11:25:05.850Z,16.96
2018-07-10T11:28:14.133Z,17.01
2018-07-10T11:30:43.488Z,16.74
2018-07-10T11:33:12.832Z,16.80
2018-07-10T11:35:42.200Z,16.78
2018-07-10T11:38:13.371Z,16.57
2018-07-10T11:40:45.641Z,16.72
2018-07-10T11:43:15.143Z,16.90
2018-07-10T11:45:44.695Z,16.49
2018-07-10T11:48:14.106Z,16.05
2018-07-10T11:50:43.420Z,15.95
2018-07-10T11:53:13.088Z,15.99
2018-07-10T11:55:42.155Z,15.49
2018-07-10T11:58:12.444Z,15.71
2018-07-10T12:00:41.780Z,15.59
2018-07-10T12:03:11.147Z,15.25
2018-07-10T12:05:41.769Z,15.48
2018-07-10T12:08:11.120Z,15.26
2018-07-10T12:10:40.481Z,15.34
2018-07-10T12:13:09.876Z,15.43
2018-07-10T12:15:39.183Z,15.26
2018-07-10T12:18:08.524Z,15.23
2018-07-10T12:20:40.953Z,15.29
2018-07-10T12:23:12.089Z,15.55
2018-07-10T12:25:44.334Z,15.58
2018-07-10T12:28:14.692Z,15.88
2018-07-10T12:30:44.026Z,16.21
2018-07-10T12:33:13.349Z,16.48
2018-07-10T12:35:42.688Z,16.64
2018-07-10T12:38:12.032Z,16.66
2018-07-10T12:40:41.396Z,16.55
2018-07-10T12:43:10.739Z,16.84
2018-07-10T12:45:40.112Z,17.19
2018-07-10T12:48:09.448Z,17.04
2018-07-10T12:50:38.848Z,17.12
2018-07-10T12:53:08.201Z,16.69
2018-07-10T12:55:38.247Z,16.63
2018-07-10T12:58:07.627Z,16.69
2018-07-10T13:00:39.161Z,16.73
2018-07-10T13:03:10.670Z,16.88
2018-07-10T13:05:51.361Z,16.52
2018-07-10T13:08:20.816Z,16.39
2018-07-10T13:10:50.188Z,16.54
2018-07-10T13:13:19.693Z,16.18
2018-07-10T13:15:49.071Z,15.70
2018-07-10T13:18:25.883Z,15.80
2018-07-10T13:20:55.267Z,15.76
2018-07-10T13:23:24.603Z,15.98
2018-07-10T13:25:53.991Z,16.04
2018-07-10T13:28:23.330Z,15.62
2018-07-10T13:30:52.710Z,15.53
2018-07-10T13:33:22.101Z,15.25
2018-07-10T13:35:51.494Z,15.57
2018-07-10T13:38:22.433Z,15.41
2018-07-10T13:40:54.537Z,15.34
2018-07-10T13:43:23.893Z,15.39
2018-07-10T13:45:53.216Z,15.41
2018-07-10T13:48:22.600Z,15.35
2018-07-10T13:50:51.947Z,15.77
2018-07-10T13:53:21.312Z,15.96
2018-07-10T13:55:50.689Z,16.19
2018-07-10T13:58:24.793Z,16.76
2018-07-10T14:00:58.791Z,17.05
2018-07-10T14:03:28.117Z,17.25
2018-07-10T14:05:57.498Z,17.72
2018-07-10T14:08:26.840Z,17.71
2018-07-10T14:10:56.211Z,17.35
2018-07-10T14:13:25.719Z,17.31
2018-07-10T14:15:55.648Z,16.55
2018-07-10T14:18:25.368Z,16.55
2018-07-10T14:21:01.179Z,16.16
2018-07-10T14:23:30.516Z,16.05
2018-07-10T14:25:59.884Z,16.24
2018-07-10T14:28:29.275Z,16.18
2018-07-10T14:30:59.140Z,16.09
2018-07-10T14:33:28.564Z,16.30
2018-07-10T14:35:57.927Z,15.84
2018-07-10T14:38:30.098Z,15.91
2018-07-10T14:41:04.127Z,16.04
2018-07-10T14:43:41.664Z,16.19
2018-07-10T14:46:16.792Z,16.35
2018-07-10T14:48:50.880Z,16.56
2018-07-10T14:51:24.889Z,17.18
2018-07-10T14:53:54.269Z,18.41
2018-07-10T14:56:23.677Z,19.53
2018-07-10T14:58:53.295Z,20.23
2018-07-10T15:01:22.812Z,20.30
2018-07-10T15:03:52.139Z,19.10
2018-07-10T15:06:21.473Z,18.65
2018-07-10T15:08:50.816Z,18.09
2018-07-10T15:11:20.128Z,17.74
2018-07-10T15:14:04.249Z,17.35
2018-07-10T15:16:38.970Z,17.37
2018-07-10T15:19:08.376Z,17.54
2018-07-10T15:21:37.784Z,17.99
2018-07-10T15:24:08.324Z,18.36
2018-07-10T15:26:37.647Z,18.08
2018-07-10T15:29:06.972Z,17.43
2018-07-10T15:31:36.315Z,17.88
2018-07-10T15:34:05.637Z,17.67
2018-07-10T15:36:34.956Z,17.53
2018-07-10T15:39:05.462Z,17.27
2018-07-10T15:41:34.806Z,17.32
2018-07-10T15:44:04.147Z,17.06
2018-07-10T15:46:33.515Z,17.14
2018-07-10T15:49:03.745Z,17.31
2018-07-10T15:51:33.465Z,17.14
2018-07-10T15:54:02.820Z,17.28
2018-07-10T15:56:32.144Z,17.11
2018-07-10T15:59:01.520Z,17.07
2018-07-10T16:01:30.834Z,17.25
2018-07-10T16:04:00.186Z,17.06
2018-07-10T16:06:31.307Z,16.88
2018-07-10T16:09:14.426Z,16.82
2018-07-10T16:11:43.884Z,16.88
2018-07-10T16:14:13.269Z,16.86
2018-07-10T16:16:42.652Z,16.77
2018-07-10T16:19:17.916Z,16.53
2018-07-10T16:21:59.520Z,16.76
2018-07-10T16:24:31.538Z,16.55
2018-07-10T16:27:00.978Z,16.40
2018-07-10T16:29:30.370Z,16.05
2018-07-10T16:32:02.909Z,15.86
2018-07-10T16:34:32.418Z,15.88
2018-07-10T16:37:02.840Z,15.76
2018-07-10T16:39:32.161Z,15.95
2018-07-10T16:42:06.864Z,15.67
2018-07-10T16:44:38.236Z,15.73
2018-07-10T16:47:13.776Z,15.57
2018-07-10T16:49:45.907Z,15.44
2018-07-10T16:52:31.968Z,15.29
2018-07-10T16:55:01.347Z,15.03
2018-07-10T16:57:30.746Z,14.86
2018-07-10T17:00:00.159Z,14.90
2018-07-10T17:02:29.687Z,14.84
2018-07-10T17:04:59.806Z,14.86
2018-07-10T17:07:29.163Z,14.88
2018-07-10T17:09:58.577Z,14.93
2018-07-10T17:12:28.118Z,14.98
2018-07-10T17:14:58.772Z,15.07
2018-07-10T17:17:28.668Z,15.18
2018-07-10T17:19:58.188Z,15.24
2018-07-10T17:22:27.564Z,15.11
2018-07-10T17:24:57.070Z,14.98
2018-07-10T17:27:32.113Z,14.97
2018-07-10T17:30:02.519Z,15.10
2018-07-10T17:32:32.732Z,15.18
2018-07-10T17:35:02.666Z,15.07
2018-07-10T17:37:35.177Z,14.92
2018-07-10T17:40:05.883Z,14.94
2018-07-10T17:42:36.832Z,14.98
2018-07-10T17:45:06.640Z,15.01
2018-07-10T17:47:36.244Z,15.02
2018-07-10T17:50:05.866Z,14.89
2018-07-10T17:52:35.565Z,14.91
2018-07-10T17:55:05.285Z,14.90
2018-07-10T17:57:35.452Z,15.03
2018-07-10T18:00:05.913Z,15.06
2018-07-10T18:02:35.331Z,15.00
2018-07-10T18:05:04.687Z,14.98
2018-07-10T18:07:34.232Z,14.95
2018-07-10T18:10:06.576Z,14.95
2018-07-10T18:12:35.924Z,14.96
2018-07-10T18:15:05.301Z,14.84
2018-07-10T18:17:34.738Z,14.86
2018-07-10T18:20:04.252Z,14.83
2018-07-10T18:22:33.646Z,14.83
2018-07-10T18:25:03.011Z,14.77
2018-07-10T18:27:32.362Z,14.92
2018-07-10T18:30:02.049Z,14.92
2018-07-10T18:32:31.432Z,14.85
2018-07-10T18:35:00.805Z,15.03
2018-07-10T18:37:31.980Z,15.03
2018-07-10T18:40:01.877Z,15.14
2018-07-10T18:42:31.595Z,15.28
2018-07-10T18:45:01.874Z,15.14
2018-07-10T18:47:33.374Z,15.05
2018-07-10T18:50:05.172Z,15.05
2018-07-10T18:52:36.333Z,14.93
2018-07-10T18:55:07.456Z,14.83
2018-07-10T18:59:56.442Z,14.71
2018-07-10T19:02:41.315Z,14.70
2018-07-10T19:05:14.112Z,14.64
2018-07-10T19:07:45.988Z,14.82
2018-07-10T19:10:17.671Z,14.88
2018-07-10T19:12:50.464Z,15.03
2018-07-10T19:15:21.475Z,14.98
2018-07-10T19:17:54.483Z,14.94
2018-07-10T19:20:29.463Z,14.93
2018-07-10T19:23:11.742Z,15.06
2018-07-10T19:25:43.930Z,15.05
2018-07-10T19:28:16.775Z,14.97
2018-07-10T19:30:59.490Z,14.95
2018-07-10T19:33:31.263Z,15.08
2018-07-10T19:36:03.970Z,14.77
2018-07-10T19:38:36.171Z,14.77
2018-07-10T19:41:08.467Z,14.62
2018-07-10T19:43:41.074Z,14.63
2018-07-10T19:46:14.757Z,14.76
2018-07-10T19:48:50.456Z,14.85
2018-07-10T19:51:26.627Z,14.91
2018-07-10T19:54:10.682Z,14.89
2018-07-10T19:56:43.955Z,14.91
2018-07-10T19:59:15.691Z,14.84
2018-07-10T20:02:04.473Z,15.00
2018-07-10T20:04:46.891Z,14.84
2018-07-10T20:07:42.347Z,14.78
2018-07-10T20:10:18.446Z,14.81
2018-07-10T20:13:02.919Z,14.65
2018-07-10T20:15:42.896Z,14.43
2018-07-10T20:20:25.978Z,14.23
2018-07-10T20:23:18.645Z,14.39
2018-07-10T20:26:05.391Z,14.39
2018-07-10T20:28:49.677Z,14.54
2018-07-10T20:32:31.730Z,14.64
2018-07-10T20:35:35.504Z,14.73
2018-07-10T20:38:04.903Z,14.70
2018-07-10T20:40:38.090Z,14.29
2018-07-10T20:43:13.609Z,14.41
2018-07-10T20:45:48.944Z,14.44
2018-07-10T20:49:28.824Z,14.44
2018-07-10T20:52:04.929Z,14.52
2018-07-10T20:55:14.395Z,14.29
2018-07-10T20:57:57.011Z,14.50
2018-07-10T21:00:29.460Z,14.52
2018-07-10T21:04:06.337Z,14.60
2018-07-10T21:06:56.372Z,14.76
2018-07-10T21:09:58.444Z,14.81
2018-07-10T21:12:48.524Z,14.88
2018-07-10T21:15:29.268Z,14.86
2018-07-10T21:18:14.345Z,14.77
2018-07-10T21:21:00.211Z,14.76
2018-07-10T21:23:53.603Z,14.73
2018-07-10T21:27:36.421Z,14.70
2018-07-10T21:30:48.081Z,14.79
2018-07-10T21:34:29.103Z,14.76
2018-07-10T21:37:09.456Z,14.76
2018-07-10T21:39:51.432Z,14.82
2018-07-10T21:42:48.529Z,14.89
2018-07-10T21:47:37.968Z,14.94
2018-07-10T21:50:09.626Z,14.87
2018-07-10T21:52:38.941Z,14.86
2018-07-10T21:55:08.387Z,14.87
2018-07-10T21:57:41.703Z,14.88
2018-07-10T22:00:11.060Z,14.89
2018-07-10T22:02:40.392Z,14.84
2018-07-10T22:05:09.776Z,14.78
2018-07-10T22:07:39.116Z,14.77
2018-07-10T22:10:09.177Z,14.70
2018-07-10T22:12:46.827Z,14.68
2018-07-10T22:15:16.339Z,14.59
2018-07-10T22:17:46.131Z,14.49
2018-07-10T22:20:16.260Z,14.49
2018-07-10T22:22:45.623Z,14.40
2018-07-10T22:25:14.973Z,14.43
2018-07-10T22:27:44.347Z,14.32
2018-07-10T22:30:21.465Z,14.29
2018-07-10T22:32:56.134Z,14.35
2018-07-10T22:35:25.805Z,14.20
2018-07-10T22:37:55.522Z,14.25
2018-07-10T22:40:24.875Z,14.26
2018-07-10T22:42:54.332Z,14.18
2018-07-10T22:45:23.672Z,14.18
2018-07-10T22:47:53.015Z,14.07
2018-07-10T22:50:23.971Z,13.98
2018-07-10T22:52:58.092Z,13.92
2018-07-10T22:55:29.694Z,13.95
2018-07-10T22:58:05.518Z,13.95
2018-07-10T23:00:37.261Z,13.99
2018-07-10T23:03:25.708Z,13.93
2018-07-10T23:05:55.855Z,13.88
2018-07-10T23:08:34.924Z,13.84
2018-07-10T23:11:06.277Z,13.83
2018-07-10T23:13:39.788Z,13.88
2018-07-10T23:16:09.968Z,13.89
2018-07-10T23:18:39.460Z,13.79
2018-07-10T23:21:11.880Z,13.74
2018-07-10T23:23:41.313Z,13.69
2018-07-10T23:26:12.225Z,13.65
2018-07-10T23:28:42.360Z,13.62
2018-07-10T23:31:14.844Z,13.60
2018-07-10T23:33:46.579Z,13.66
2018-07-10T23:36:15.945Z,13.62
2018-07-10T23:39:07.440Z,13.62
2018-07-10T23:41:48.939Z,13.59
2018-07-10T23:44:18.821Z,13.51
2018-07-10T23:46:59.367Z,13.46
2018-07-10T23:49:28.433Z,13.43
2018-07-10T23:52:14.809Z,13.35
2018-07-10T23:54:50.535Z,13.35
2018-07-10T23:57:19.936Z,13.33
2018-07-10T23:59:49.308Z,13.32
